createdAt,value
2019-02-24T00:01:53.597Z,1.30
2019-02-24T00:04:24.590Z,1.00
2019-02-24T00:06:55.179Z,0.80
2019-02-24T00:09:25.823Z,0.90
2019-02-24T00:11:56.823Z,1.00
2019-02-24T00:14:27.647Z,1.10
2019-02-24T00:16:58.729Z,1.10
2019-02-24T00:19:29.424Z,1.00
2019-02-24T00:22:00.399Z,1.00
2019-02-24T00:24:31.159Z,1.00
2019-02-24T00:27:02.074Z,1.00
2019-02-24T00:29:33.079Z,0.90
2019-02-24T00:32:03.684Z,0.80
2019-02-24T00:34:34.596Z,0.70
2019-02-24T00:37:05.204Z,0.70
2019-02-24T00:39:35.940Z,0.80
2019-02-24T00:42:06.541Z,0.80
2019-02-24T00:44:37.069Z,0.70
2019-02-24T00:47:07.699Z,0.70
2019-02-24T00:49:38.160Z,0.80
2019-02-24T00:52:08.674Z,0.80
2019-02-24T00:54:39.289Z,0.90
2019-02-24T00:57:09.654Z,1.00
2019-02-24T00:59:40.200Z,1.10
2019-02-24T01:02:10.559Z,1.10
2019-02-24T01:04:40.964Z,1.20
2019-02-24T01:07:11.509Z,1.20
2019-02-24T01:09:42.003Z,1.30
2019-02-24T01:12:12.749Z,1.30
2019-02-24T01:14:43.223Z,1.30
2019-02-24T01:17:13.849Z,1.30
2019-02-24T01:19:44.529Z,1.40
2019-02-24T01:22:15.159Z,1.40
2019-02-24T01:24:45.864Z,1.40
2019-02-24T01:27:16.764Z,1.40
2019-02-24T01:29:47.319Z,1.30
2019-02-24T01:32:17.973Z,1.40
2019-02-24T01:34:48.564Z,1.40
2019-02-24T01:37:19.163Z,1.40
2019-02-24T01:39:49.709Z,1.40
2019-02-24T01:42:20.534Z,1.40
2019-02-24T01:44:51.191Z,1.40
2019-02-24T01:47:21.735Z,1.40
2019-02-24T01:49:52.644Z,1.30
2019-02-24T01:52:23.279Z,1.30
2019-02-24T01:54:53.749Z,1.30
2019-02-24T01:57:24.539Z,1.20
2019-02-24T01:59:55.159Z,1.20
2019-02-24T02:02:25.718Z,1.20
2019-02-24T02:04:56.270Z,1.10
2019-02-24T02:07:27.033Z,1.00
2019-02-24T02:09:57.519Z,0.90
2019-02-24T02:12:28.058Z,0.90
2019-02-24T02:14:58.655Z,0.90
2019-02-24T02:17:29.226Z,0.90
2019-02-24T02:20:00.270Z,0.90
2019-02-24T02:22:30.994Z,0.90
2019-02-24T02:25:01.678Z,0.80
2019-02-24T02:27:32.584Z,0.80
2019-02-24T02:30:03.006Z,0.70
2019-02-24T02:32:33.394Z,0.70
2019-02-24T02:35:04.190Z,0.70
2019-02-24T02:37:34.749Z,0.70
2019-02-24T02:40:05.710Z,0.70
2019-02-24T02:42:36.354Z,0.60
2019-02-24T02:45:07.274Z,0.70
2019-02-24T02:47:37.853Z,0.60
2019-02-24T02:50:08.344Z,0.50
2019-02-24T02:52:38.883Z,0.40
2019-02-24T02:55:09.503Z,0.30
2019-02-24T02:57:40.195Z,0.20
2019-02-24T03:00:18.176Z,0.20
2019-02-24T03:02:48.748Z,0.10
2019-02-24T03:05:19.300Z,0.00
2019-02-24T03:07:55.812Z,0.00
2019-02-24T03:10:26.319Z,0.10
2019-02-24T03:12:56.854Z,0.10
2019-02-24T03:15:27.659Z,0.00
2019-02-24T03:17:58.379Z,0.00
2019-02-24T03:20:28.743Z,0.10
2019-02-24T03:22:59.218Z,0.10
2019-02-24T03:25:29.728Z,0.20
2019-02-24T03:28:00.253Z,0.40
2019-02-24T03:30:30.734Z,0.50
2019-02-24T03:33:01.125Z,0.60
2019-02-24T03:35:31.514Z,0.70
2019-02-24T03:38:01.896Z,0.70
2019-02-24T03:40:32.376Z,0.70
2019-02-24T03:43:02.748Z,0.70
2019-02-24T03:45:33.179Z,0.70
2019-02-24T03:48:03.846Z,0.70
2019-02-24T03:50:34.286Z,0.60
2019-02-24T03:53:04.823Z,0.50
2019-02-24T03:55:35.388Z,0.40
2019-02-24T03:58:05.854Z,0.20
2019-02-24T04:00:36.289Z,0.10
2019-02-24T04:03:06.904Z,0.10
2019-02-24T04:05:37.338Z,0.10
2019-02-24T04:08:07.834Z,0.20
2019-02-24T04:10:38.417Z,0.10
2019-02-24T04:13:08.874Z,0.10
2019-02-24T04:15:39.350Z,0.00
2019-02-24T04:18:10.079Z,-0.10
2019-02-24T04:20:40.719Z,-0.20
2019-02-24T04:23:11.039Z,-0.40
2019-02-24T04:25:41.454Z,-0.30
2019-02-24T04:28:11.845Z,-0.40
2019-02-24T04:30:42.278Z,-0.50
2019-02-24T04:33:12.856Z,-0.50
2019-02-24T04:35:43.189Z,-0.50
2019-02-24T04:38:13.625Z,-0.50
2019-02-24T04:40:44.038Z,-0.40
2019-02-24T04:43:14.378Z,-0.40
2019-02-24T04:45:44.838Z,-0.30
2019-02-24T04:48:15.289Z,-0.20
2019-02-24T04:50:45.689Z,-0.20
2019-02-24T04:53:16.123Z,-0.20
2019-02-24T04:55:46.733Z,-0.30
2019-02-24T04:58:17.083Z,-0.30
2019-02-24T05:00:47.613Z,-0.20
2019-02-24T05:03:18.208Z,-0.20
2019-02-24T05:05:48.799Z,-0.20
2019-02-24T05:08:19.348Z,-0.20
2019-02-24T05:10:49.878Z,-0.20
2019-02-24T05:13:20.319Z,-0.20
2019-02-24T05:15:50.671Z,-0.10
2019-02-24T05:18:21.155Z,-0.10
2019-02-24T05:20:51.704Z,0.00
2019-02-24T05:23:22.160Z,0.00
2019-02-24T05:25:52.749Z,0.10
2019-02-24T05:28:23.238Z,0.10
2019-02-24T05:30:53.736Z,0.10
2019-02-24T05:33:24.205Z,0.20
2019-02-24T05:35:54.458Z,0.20
2019-02-24T05:38:24.933Z,0.20
2019-02-24T05:40:55.493Z,0.20
2019-02-24T05:43:25.908Z,0.20
2019-02-24T05:45:56.269Z,0.20
2019-02-24T05:48:26.858Z,0.20
2019-02-24T05:50:57.271Z,0.20
2019-02-24T05:53:27.604Z,0.20
2019-02-24T05:55:57.980Z,0.20
2019-02-24T05:58:28.389Z,0.20
2019-02-24T06:00:58.881Z,0.20
2019-02-24T06:03:29.639Z,0.20
2019-02-24T06:06:00.128Z,0.10
2019-02-24T06:08:30.554Z,0.00
2019-02-24T06:11:01.036Z,0.00
2019-02-24T06:13:31.603Z,0.00
2019-02-24T06:16:02.074Z,0.10
2019-02-24T06:18:32.784Z,0.20
2019-02-24T06:21:03.333Z,0.20
2019-02-24T06:23:33.764Z,0.10
2019-02-24T06:26:04.229Z,0.20
2019-02-24T06:28:34.725Z,0.20
2019-02-24T06:31:05.115Z,0.30
2019-02-24T06:33:35.853Z,0.30
2019-02-24T06:36:06.343Z,0.40
2019-02-24T06:38:36.858Z,0.50
2019-02-24T06:41:07.744Z,0.60
2019-02-24T06:43:38.224Z,0.70
2019-02-24T06:46:08.714Z,0.80
2019-02-24T06:48:39.414Z,0.80
2019-02-24T06:51:11.370Z,0.80
2019-02-24T06:53:41.779Z,1.00
2019-02-24T06:56:12.458Z,1.00
2019-02-24T06:58:42.809Z,1.10
2019-02-24T07:01:13.294Z,1.20
2019-02-24T07:03:44.081Z,1.20
2019-02-24T07:06:14.463Z,1.30
2019-02-24T07:08:44.907Z,1.30
2019-02-24T07:11:15.383Z,1.40
2019-02-24T07:13:45.838Z,1.50
2019-02-24T07:16:16.453Z,1.60
2019-02-24T07:18:47.000Z,1.70
2019-02-24T07:21:18.709Z,1.80
2019-02-24T07:23:49.154Z,1.90
2019-02-24T07:26:19.578Z,2.00
2019-02-24T07:28:50.094Z,2.10
2019-02-24T07:31:20.729Z,2.20
2019-02-24T07:33:51.219Z,2.30
2019-02-24T07:36:21.644Z,2.40
2019-02-24T07:38:52.409Z,2.50
2019-02-24T07:41:22.778Z,2.60
2019-02-24T07:43:53.178Z,2.70
2019-02-24T07:46:23.979Z,2.80
2019-02-24T07:48:54.444Z,3.00
2019-02-24T07:51:24.873Z,3.10
2019-02-24T07:53:55.689Z,3.20
2019-02-24T07:56:26.167Z,3.40
2019-02-24T07:58:56.507Z,3.60
2019-02-24T08:01:27.233Z,3.70
2019-02-24T08:03:57.655Z,3.70
2019-02-24T08:06:28.035Z,3.80
2019-02-24T08:08:58.589Z,3.90
2019-02-24T08:11:29.098Z,4.00
2019-02-24T08:13:59.559Z,4.10
2019-02-24T08:16:30.195Z,4.20
2019-02-24T08:19:04.768Z,4.30
2019-02-24T08:21:35.678Z,4.40
2019-02-24T08:24:06.375Z,4.50
2019-02-24T08:26:37.169Z,4.60
2019-02-24T08:29:07.994Z,4.70
2019-02-24T08:31:38.625Z,4.80
2019-02-24T08:34:09.509Z,4.90
2019-02-24T08:36:40.599Z,5.00
2019-02-24T08:39:11.329Z,5.10
2019-02-24T08:41:41.784Z,5.20
2019-02-24T08:44:12.644Z,5.30
2019-02-24T08:46:43.234Z,5.30
2019-02-24T08:49:13.730Z,5.40
2019-02-24T08:51:44.509Z,5.40
2019-02-24T08:54:15.294Z,5.50
2019-02-24T08:56:45.954Z,5.70
2019-02-24T08:59:16.834Z,5.80
2019-02-24T09:01:47.634Z,5.90
2019-02-24T09:04:18.484Z,6.00
2019-02-24T09:06:49.354Z,6.00
2019-02-24T09:09:20.176Z,6.20
2019-02-24T09:11:50.904Z,6.20
2019-02-24T09:14:21.812Z,6.30
2019-02-24T09:16:52.380Z,6.40
2019-02-24T09:19:23.104Z,6.40
2019-02-24T09:21:53.991Z,6.50
2019-02-24T09:24:24.674Z,6.50
2019-02-24T09:26:55.204Z,6.60
2019-02-24T09:29:26.635Z,6.50
2019-02-24T09:31:58.956Z,6.60
2019-02-24T09:34:29.624Z,6.70
2019-02-24T09:37:01.619Z,6.80
2019-02-24T09:39:32.163Z,6.90
2019-02-24T09:42:02.704Z,6.90
2019-02-24T09:44:34.359Z,7.10
2019-02-24T09:47:05.288Z,7.20
2019-02-24T09:49:36.054Z,7.20
2019-02-24T09:52:06.714Z,7.30
2019-02-24T09:54:37.281Z,7.30
2019-02-24T09:57:07.996Z,7.40
2019-02-24T09:59:39.640Z,7.70
2019-02-24T10:02:10.429Z,7.90
2019-02-24T10:04:41.359Z,8.00
2019-02-24T10:07:12.069Z,8.10
2019-02-24T10:09:43.285Z,8.20
2019-02-24T10:12:14.615Z,8.30
2019-02-24T10:14:45.545Z,8.10
2019-02-24T10:17:16.172Z,7.90
2019-02-24T10:19:47.405Z,8.00
2019-02-24T10:22:19.069Z,8.00
2019-02-24T10:24:49.844Z,8.20
2019-02-24T10:27:20.534Z,8.40
2019-02-24T10:29:51.334Z,8.50
2019-02-24T10:32:21.819Z,8.30
2019-02-24T10:34:52.534Z,8.40
2019-02-24T10:37:23.329Z,8.50
2019-02-24T10:39:54.155Z,8.60
2019-02-24T10:42:24.794Z,8.80
2019-02-24T10:44:55.449Z,8.80
2019-02-24T10:47:26.024Z,8.80
2019-02-24T10:49:56.549Z,8.70
2019-02-24T10:52:27.274Z,8.70
2019-02-24T10:54:57.785Z,8.90
2019-02-24T10:57:28.649Z,9.00
2019-02-24T10:59:59.659Z,8.60
2019-02-24T11:02:30.290Z,8.80
2019-02-24T11:05:01.040Z,8.90
2019-02-24T11:07:32.154Z,8.80
2019-02-24T11:10:03.983Z,8.90
2019-02-24T11:12:34.734Z,8.70
2019-02-24T11:15:05.964Z,8.60
2019-02-24T11:17:36.544Z,8.60
2019-02-24T11:20:08.778Z,9.00
2019-02-24T11:22:39.623Z,9.10
2019-02-24T11:25:11.454Z,9.20
2019-02-24T11:27:42.295Z,9.30
2019-02-24T11:30:13.319Z,9.60
2019-02-24T11:32:44.189Z,9.60
2019-02-24T11:35:14.875Z,9.90
2019-02-24T11:37:45.799Z,9.60
2019-02-24T11:40:16.431Z,9.80
2019-02-24T11:42:48.357Z,10.00
2019-02-24T11:45:19.339Z,10.20
2019-02-24T11:47:49.885Z,10.30
2019-02-24T11:50:20.699Z,10.50
2019-02-24T11:52:52.378Z,10.30
2019-02-24T11:55:27.960Z,10.20
2019-02-24T11:57:59.471Z,9.90
2019-02-24T12:00:31.754Z,10.20
2019-02-24T12:03:02.491Z,10.50
2019-02-24T12:05:38.939Z,10.90
2019-02-24T12:08:14.064Z,10.80
2019-02-24T12:10:45.081Z,10.90
2019-02-24T12:13:16.054Z,10.70
2019-02-24T12:15:46.921Z,10.40
2019-02-24T12:18:17.825Z,10.40
2019-02-24T12:20:48.599Z,10.30
2019-02-24T12:23:20.299Z,9.60
2019-02-24T12:25:53.005Z,9.70
2019-02-24T12:28:38.169Z,10.00
2019-02-24T12:31:09.985Z,10.50
2019-02-24T12:33:42.029Z,11.10
2019-02-24T12:36:13.024Z,11.60
2019-02-24T12:38:49.542Z,11.80
2019-02-24T12:41:22.005Z,12.10
2019-02-24T12:43:55.543Z,12.00
2019-02-24T12:46:27.935Z,12.20
2019-02-24T12:48:58.969Z,12.20
2019-02-24T12:51:40.484Z,12.30
2019-02-24T12:54:11.779Z,12.20
2019-02-24T12:56:43.700Z,12.60
2019-02-24T12:59:15.361Z,12.60
2019-02-24T13:01:46.515Z,12.20
2019-02-24T13:04:17.384Z,11.90
2019-02-24T13:06:50.764Z,12.40
2019-02-24T13:09:25.422Z,12.40
2019-02-24T13:11:57.459Z,11.80
2019-02-24T13:14:28.465Z,12.30
2019-02-24T13:16:59.424Z,12.70
2019-02-24T13:19:30.629Z,13.00
2019-02-24T13:22:01.784Z,13.60
2019-02-24T13:24:32.444Z,13.80
2019-02-24T13:27:05.501Z,13.40
2019-02-24T13:29:36.040Z,13.80
2019-02-24T13:32:14.639Z,14.10
2019-02-24T13:34:41.842Z,14.00
2019-02-24T13:37:13.597Z,11.80
2019-02-24T13:39:44.937Z,12.20
2019-02-24T13:42:16.444Z,11.60
2019-02-24T13:44:47.536Z,12.40
2019-02-24T13:47:18.609Z,12.50
2019-02-24T13:49:49.404Z,12.20
2019-02-24T13:52:20.215Z,11.70
2019-02-24T13:54:50.994Z,12.50
2019-02-24T13:57:21.624Z,13.00
2019-02-24T13:59:52.554Z,12.00
2019-02-24T14:02:24.295Z,11.30
2019-02-24T14:04:55.071Z,11.60
2019-02-24T14:07:25.790Z,12.40
2019-02-24T14:09:56.670Z,12.00
2019-02-24T14:12:27.366Z,11.40
2019-02-24T14:14:58.094Z,11.70
2019-02-24T14:17:29.016Z,11.70
2019-02-24T14:19:59.999Z,11.90
2019-02-24T14:22:30.709Z,12.20
2019-02-24T14:25:01.617Z,12.00
2019-02-24T14:27:32.515Z,12.40
2019-02-24T14:30:03.149Z,12.70
2019-02-24T14:32:34.269Z,12.70
2019-02-24T14:35:05.059Z,12.70
2019-02-24T14:37:35.775Z,12.80
2019-02-24T14:40:06.900Z,12.70
2019-02-24T14:42:37.619Z,12.90
2019-02-24T14:45:10.883Z,13.40
2019-02-24T14:47:42.336Z,13.70
2019-02-24T14:50:13.469Z,13.80
2019-02-24T14:52:44.554Z,13.10
2019-02-24T14:55:15.447Z,12.80
2019-02-24T14:57:46.284Z,13.10
2019-02-24T15:00:22.629Z,13.70
2019-02-24T15:02:55.310Z,13.00
2019-02-24T15:05:30.034Z,12.20
2019-02-24T15:08:04.084Z,12.20
2019-02-24T15:10:37.270Z,11.70
2019-02-24T15:13:09.149Z,11.50
2019-02-24T15:15:55.533Z,11.90
2019-02-24T15:18:29.614Z,12.70
2019-02-24T15:21:16.129Z,12.70
2019-02-24T15:23:49.160Z,12.30
2019-02-24T15:26:25.009Z,11.90
2019-02-24T15:29:25.998Z,12.20
2019-02-24T15:32:03.481Z,12.10
2019-02-24T15:34:37.176Z,11.90
2019-02-24T15:37:21.539Z,12.80
2019-02-24T15:39:57.416Z,13.50
2019-02-24T15:42:30.694Z,13.80
2019-02-24T15:45:04.109Z,13.20
2019-02-24T15:47:37.189Z,13.80
2019-02-24T15:50:10.855Z,13.90
2019-02-24T15:52:49.674Z,13.80
2019-02-24T15:55:27.184Z,14.10
2019-02-24T15:58:00.719Z,14.50
2019-02-24T16:00:32.244Z,14.80
2019-02-24T16:03:07.624Z,14.50
2019-02-24T16:05:41.904Z,14.60
2019-02-24T16:08:19.695Z,15.00
2019-02-24T16:10:51.644Z,15.10
2019-02-24T16:13:23.289Z,15.10
2019-02-24T16:15:54.279Z,15.50
2019-02-24T16:18:25.380Z,15.20
2019-02-24T16:20:56.741Z,14.80
2019-02-24T16:23:27.691Z,14.40
2019-02-24T16:25:58.590Z,14.00
2019-02-24T16:28:30.785Z,14.00
2019-02-24T16:31:01.533Z,13.90
2019-02-24T16:33:32.274Z,13.70
2019-02-24T16:36:09.364Z,13.50
2019-02-24T16:38:41.505Z,13.20
2019-02-24T16:41:14.220Z,12.90
2019-02-24T16:43:54.724Z,12.70
2019-02-24T16:46:30.510Z,12.50
2019-02-24T16:49:11.335Z,12.20
2019-02-24T16:51:48.596Z,11.70
2019-02-24T16:54:20.624Z,11.30
2019-02-24T16:56:54.041Z,10.80
2019-02-24T16:59:27.800Z,10.30
2019-02-24T17:02:05.244Z,9.90
2019-02-24T17:04:38.164Z,9.70
2019-02-24T17:07:15.084Z,9.30
2019-02-24T17:09:51.589Z,9.20
2019-02-24T17:12:27.386Z,9.30
2019-02-24T17:15:04.900Z,9.20
2019-02-24T17:17:37.785Z,8.80
2019-02-24T17:20:27.945Z,8.70
2019-02-24T17:23:49.552Z,8.70
2019-02-24T17:26:36.568Z,8.70
2019-02-24T17:29:09.770Z,8.60
2019-02-24T17:31:41.363Z,8.30
2019-02-24T17:34:12.397Z,8.30
2019-02-24T17:36:45.029Z,8.30
2019-02-24T17:39:17.186Z,8.40
2019-02-24T17:41:48.075Z,8.50
2019-02-24T17:44:19.349Z,8.50
2019-02-24T17:46:50.484Z,8.40
2019-02-24T17:49:22.850Z,8.50
2019-02-24T17:51:53.861Z,8.40
2019-02-24T17:54:24.841Z,8.50
2019-02-24T17:56:56.241Z,8.40
2019-02-24T17:59:27.436Z,8.40
2019-02-24T18:01:58.425Z,8.30
2019-02-24T18:04:29.615Z,8.20
2019-02-24T18:07:00.810Z,8.20
2019-02-24T18:09:31.654Z,8.20
2019-02-24T18:12:02.664Z,8.20
2019-02-24T18:14:34.102Z,8.20
2019-02-24T18:17:05.225Z,8.10
2019-02-24T18:19:36.300Z,8.00
2019-02-24T18:22:07.071Z,7.90
2019-02-24T18:24:38.184Z,7.80
2019-02-24T18:27:09.724Z,7.80
2019-02-24T18:29:41.064Z,7.50
2019-02-24T18:32:11.974Z,7.30
2019-02-24T18:34:44.840Z,7.10
2019-02-24T18:37:15.584Z,7.00
2019-02-24T18:39:46.609Z,7.10
2019-02-24T18:42:18.630Z,7.10
2019-02-24T18:44:49.964Z,7.00
2019-02-24T18:47:21.160Z,6.90
2019-02-24T18:49:52.170Z,6.80
2019-02-24T18:52:23.514Z,6.70
2019-02-24T18:54:54.664Z,6.70
2019-02-24T18:57:25.769Z,6.70
2019-02-24T18:59:57.185Z,6.80
2019-02-24T19:02:28.984Z,6.80
2019-02-24T19:04:59.859Z,6.70
2019-02-24T19:07:31.177Z,6.60
2019-02-24T19:10:02.646Z,6.60
2019-02-24T19:12:33.484Z,6.60
2019-02-24T19:15:04.740Z,6.50
2019-02-24T19:17:35.660Z,6.50
2019-02-24T19:20:07.027Z,6.50
2019-02-24T19:22:37.980Z,6.40
2019-02-24T19:25:09.844Z,6.40
2019-02-24T19:27:41.504Z,6.30
2019-02-24T19:30:14.524Z,6.30
2019-02-24T19:32:45.822Z,6.20
2019-02-24T19:35:17.230Z,6.20
2019-02-24T19:37:48.789Z,6.20
2019-02-24T19:40:20.346Z,6.20
2019-02-24T19:42:51.884Z,6.20
2019-02-24T19:45:23.315Z,6.20
2019-02-24T19:47:55.010Z,6.10
2019-02-24T19:50:26.546Z,6.10
2019-02-24T19:52:57.860Z,6.00
2019-02-24T19:55:30.465Z,6.10
2019-02-24T19:58:02.362Z,6.00
2019-02-24T20:00:34.265Z,6.10
2019-02-24T20:03:05.755Z,6.10
2019-02-24T20:05:37.406Z,6.00
2019-02-24T20:08:08.600Z,5.90
2019-02-24T20:10:39.705Z,5.90
2019-02-24T20:13:11.795Z,5.90
2019-02-24T20:15:43.091Z,5.90
2019-02-24T20:18:14.266Z,5.80
2019-02-24T20:20:45.495Z,5.80
2019-02-24T20:23:16.339Z,5.70
2019-02-24T20:25:47.494Z,5.60
2019-02-24T20:28:18.441Z,5.60
2019-02-24T20:30:50.954Z,5.70
2019-02-24T20:33:22.895Z,5.60
2019-02-24T20:35:54.152Z,5.60
2019-02-24T20:38:25.195Z,5.50
2019-02-24T20:40:56.357Z,5.40
2019-02-24T20:43:27.672Z,5.40
2019-02-24T20:45:59.315Z,5.20
2019-02-24T20:48:30.261Z,5.00
2019-02-24T20:51:01.101Z,4.80
2019-02-24T20:53:32.052Z,4.50
2019-02-24T20:56:03.454Z,4.20
2019-02-24T20:58:34.346Z,4.10
2019-02-24T21:01:11.961Z,4.20
2019-02-24T21:03:43.120Z,4.30
2019-02-24T21:06:14.024Z,4.30
2019-02-24T21:08:45.025Z,4.30
2019-02-24T21:11:15.844Z,4.40
2019-02-24T21:13:46.944Z,4.50
2019-02-24T21:16:18.592Z,4.40
2019-02-24T21:18:50.108Z,4.40
2019-02-24T21:21:21.564Z,4.30
2019-02-24T21:23:52.619Z,4.30
2019-02-24T21:26:24.096Z,4.20
2019-02-24T21:28:54.950Z,4.10
2019-02-24T21:31:25.999Z,4.10
2019-02-24T21:33:57.314Z,4.00
2019-02-24T21:36:27.928Z,4.00
2019-02-24T21:38:59.259Z,3.80
2019-02-24T21:41:30.299Z,3.70
2019-02-24T21:44:01.200Z,3.80
2019-02-24T21:46:32.005Z,3.60
2019-02-24T21:49:03.561Z,3.50
2019-02-24T21:51:34.641Z,3.50
2019-02-24T21:54:05.704Z,3.50
2019-02-24T21:56:36.759Z,3.50
2019-02-24T21:59:07.714Z,3.40
2019-02-24T22:01:38.858Z,3.40
2019-02-24T22:04:09.904Z,3.30
2019-02-24T22:06:40.780Z,3.20
2019-02-24T22:09:12.739Z,3.20
2019-02-24T22:11:43.879Z,3.20
2019-02-24T22:14:14.597Z,3.20
2019-02-24T22:16:45.554Z,3.20
2019-02-24T22:19:16.309Z,3.10
2019-02-24T22:21:47.360Z,3.00
2019-02-24T22:24:18.300Z,2.80
2019-02-24T22:26:49.490Z,2.80
2019-02-24T22:29:21.255Z,2.70
2019-02-24T22:31:51.984Z,2.70
2019-02-24T22:34:22.984Z,2.70
2019-02-24T22:36:53.954Z,2.80
2019-02-24T22:39:24.819Z,2.90
2019-02-24T22:41:55.619Z,2.90
2019-02-24T22:44:26.433Z,2.90
2019-02-24T22:46:57.305Z,2.80
2019-02-24T22:49:27.984Z,2.80
2019-02-24T22:51:58.824Z,2.70
2019-02-24T22:54:30.726Z,2.70
2019-02-24T22:57:01.309Z,2.60
2019-02-24T22:59:32.434Z,2.50
2019-02-24T23:02:03.059Z,2.40
2019-02-24T23:04:33.772Z,2.30
2019-02-24T23:07:04.764Z,2.20
2019-02-24T23:09:35.594Z,2.20
2019-02-24T23:12:08.464Z,2.20
2019-02-24T23:14:39.084Z,2.30
2019-02-24T23:17:09.839Z,2.20
2019-02-24T23:19:40.619Z,2.20
2019-02-24T23:22:11.579Z,2.30
2019-02-24T23:24:42.414Z,2.30
2019-02-24T23:27:12.854Z,2.30
2019-02-24T23:29:43.871Z,2.30
2019-02-24T23:32:14.454Z,2.30
2019-02-24T23:34:45.529Z,2.30
2019-02-24T23:37:16.284Z,2.20
2019-02-24T23:39:47.179Z,2.10
2019-02-24T23:42:17.908Z,2.10
2019-02-24T23:44:48.675Z,2.20
2019-02-24T23:47:19.314Z,2.20
2019-02-24T23:49:49.962Z,2.20
2019-02-24T23:52:20.603Z,2.20
2019-02-24T23:54:51.528Z,2.10
2019-02-24T23:57:22.154Z,2.10
2019-02-24T23:59:52.785Z,2.10
